Time;durP1;ratioP1;P1;durP2;ratioP2;P2;SDS_P1;SDS_P2;PMS_P1;PMS_P2;Temp;Humidity;BMP_temperature;BMP_pressure;BME280_temperature;BME280_humidity;BME280_pressure;Samples;Min_cycle;Max_cycle;Signal;HPM_P1;HPM_P2
2024/01/11 00:00:24;;;;;;;56.25;15.32;;;;;;;;;;4973523;28;20022;-82
2024/01/11 00:02:49;;;;;;;55.38;14.27;;;;;;;;;;4997505;28;20041;-83
2024/01/11 00:05:18;;;;;;;59.90;14.20;;;;;;;;;;4996366;28;20035;-82
2024/01/11 00:07:43;;;;;;;49.03;15.25;;;;;;;;;;4995522;28;20034;-82
2024/01/11 00:10:09;;;;;;;49.67;15.13;;;;;;;;;;4993314;28;20035;-83
2024/01/11 00:12:35;;;;;;;55.35;16.42;;;;;;;;;;4993661;28;20065;-82
2024/01/11 00:15:00;;;;;;;53.28;15.48;;;;;;;;;;4995681;28;20035;-82
2024/01/11 00:17:26;;;;;;;40.03;14.00;;;;;;;;;;4987454;28;20026;-83
2024/01/11 00:19:52;;;;;;;54.50;17.98;;;;;;;;;;4998376;28;20034;-83
2024/01/11 00:22:17;;;;;;;53.17;15.80;;;;;;;;;;4981605;28;20062;-83
2024/01/11 00:24:43;;;;;;;57.30;15.52;;;;;;;;;;4998628;28;20066;-83
2024/01/11 00:27:08;;;;;;;55.75;14.52;;;;;;;;;;4996153;28;20034;-83
2024/01/11 00:29:35;;;;;;;61.30;16.20;;;;;;;;;;4993032;28;20076;-83
2024/01/11 00:32:01;;;;;;;60.30;22.73;;;;;;;;;;4995403;28;20523;-82
2024/01/11 00:34:26;;;;;;;54.33;16.15;;;;;;;;;;4995139;28;20042;-82
2024/01/11 00:36:56;;;;;;;54.58;15.95;;;;;;;;;;4980251;28;20048;-82
2024/01/11 00:39:21;;;;;;;57.78;15.38;;;;;;;;;;4978680;28;20038;-83
2024/01/11 00:41:47;;;;;;;45.17;14.60;;;;;;;;;;4997988;28;20081;-83
2024/01/11 00:44:12;;;;;;;50.97;13.93;;;;;;;;;;4996725;28;20515;-83
2024/01/11 00:46:38;;;;;;;48.63;13.18;;;;;;;;;;4994883;28;20050;-83
2024/01/11 00:49:04;;;;;;;48.50;13.60;;;;;;;;;;4978770;28;20069;-82
2024/01/11 00:51:29;;;;;;;40.58;13.52;;;;;;;;;;4995319;28;20035;-83
2024/01/11 00:53:55;;;;;;;41.83;12.82;;;;;;;;;;4993956;28;20049;-83
2024/01/11 00:56:21;;;;;;;40.45;13.18;;;;;;;;;;4996231;28;20132;-84
2024/01/11 00:58:46;;;;;;;37.33;12.50;;;;;;;;;;4976802;28;20034;-83
2024/01/11 01:01:12;;;;;;;42.22;13.35;;;;;;;;;;4996234;28;20041;-83
2024/01/11 01:03:39;;;;;;;40.58;14.52;;;;;;;;;;4996143;28;20026;-83
2024/01/11 01:06:05;;;;;;;44.83;13.68;;;;;;;;;;4978363;28;20506;-83
2024/01/11 01:08:30;;;;;;;42.42;13.32;;;;;;;;;;4971293;28;20030;-83
2024/01/11 01:10:56;;;;;;;36.42;12.73;;;;;;;;;;4994305;28;20057;-83
2024/01/11 01:13:21;;;;;;;39.83;12.77;;;;;;;;;;4982045;28;20042;-83
2024/01/11 01:15:47;;;;;;;36.60;12.50;;;;;;;;;;4993397;28;20034;-82
2024/01/11 01:18:12;;;;;;;39.35;12.93;;;;;;;;;;4978962;28;20034;-84
2024/01/11 01:20:38;;;;;;;40.00;14.05;;;;;;;;;;4978167;28;20496;-82
2024/01/11 01:23:03;;;;;;;43.65;13.57;;;;;;;;;;4997182;28;20195;-82
2024/01/11 01:25:29;;;;;;;42.50;13.68;;;;;;;;;;4995624;28;20037;-83
2024/01/11 01:27:55;;;;;;;39.78;13.65;;;;;;;;;;4994876;28;20102;-83
2024/01/11 01:30:21;;;;;;;52.00;18.60;;;;;;;;;;4992260;28;20113;-83
2024/01/11 01:32:47;;;;;;;46.35;15.57;;;;;;;;;;4996985;28;20030;-83
2024/01/11 01:35:12;;;;;;;48.95;14.90;;;;;;;;;;4994324;28;20587;-83
2024/01/11 01:37:37;;;;;;;50.90;16.40;;;;;;;;;;4996771;28;20140;-82
2024/01/11 01:40:03;;;;;;;41.78;12.77;;;;;;;;;;4998349;28;20146;-83
2024/01/11 01:42:29;;;;;;;43.38;13.27;;;;;;;;;;4996992;28;20110;-82
2024/01/11 01:44:54;;;;;;;40.35;13.57;;;;;;;;;;4998210;28;20072;-83
2024/01/11 01:47:20;;;;;;;53.28;14.15;;;;;;;;;;5000820;28;20033;-82
2024/01/11 01:49:48;;;;;;;53.33;12.98;;;;;;;;;;4978950;28;20035;-82
2024/01/11 01:52:14;;;;;;;67.13;17.20;;;;;;;;;;4979986;28;20089;-82
2024/01/11 01:54:40;;;;;;;59.75;18.98;;;;;;;;;;5000059;28;20916;-82
2024/01/11 01:57:07;;;;;;;69.80;21.98;;;;;;;;;;4999008;28;20095;-83
2024/01/11 01:59:33;;;;;;;54.30;14.93;;;;;;;;;;5000227;28;20057;-83
2024/01/11 02:01:59;;;;;;;43.08;13.77;;;;;;;;;;4989051;28;20050;-83
2024/01/11 02:04:24;;;;;;;50.83;14.43;;;;;;;;;;4999328;28;20041;-82
2024/01/11 02:06:52;;;;;;;61.50;16.88;;;;;;;;;;4999492;28;20035;-83
2024/01/11 02:09:18;;;;;;;69.30;21.55;;;;;;;;;;4980509;28;20388;-82
2024/01/11 02:11:45;;;;;;;57.38;15.93;;;;;;;;;;4996135;28;20034;-82
2024/01/11 02:14:10;;;;;;;57.83;16.38;;;;;;;;;;4998317;28;20132;-82
2024/01/11 02:16:37;;;;;;;67.30;18.70;;;;;;;;;;4998151;28;20035;-82
2024/01/11 02:19:06;;;;;;;55.80;15.80;;;;;;;;;;5000137;28;20049;-83
2024/01/11 02:21:33;;;;;;;51.80;13.27;;;;;;;;;;4998411;28;20083;-83
2024/01/11 02:24:03;;;;;;;44.30;15.23;;;;;;;;;;4999378;28;20045;-83
2024/01/11 02:26:29;;;;;;;54.35;14.48;;;;;;;;;;4997838;28;20038;-82
2024/01/11 02:28:54;;;;;;;42.45;14.60;;;;;;;;;;4998758;28;20037;-82
2024/01/11 02:31:19;;;;;;;45.05;14.43;;;;;;;;;;4997709;28;20503;-82
2024/01/11 02:33:45;;;;;;;52.83;14.23;;;;;;;;;;4994100;28;20071;-83
2024/01/11 02:36:11;;;;;;;45.55;13.98;;;;;;;;;;4996634;28;20065;-83
2024/01/11 02:38:38;;;;;;;54.22;14.07;;;;;;;;;;4998139;28;20040;-82
2024/01/11 02:41:05;;;;;;;41.08;14.05;;;;;;;;;;4997740;28;20043;-82
2024/01/11 02:43:30;;;;;;;41.22;13.90;;;;;;;;;;4995245;28;20038;-83
2024/01/11 02:45:56;;;;;;;49.78;13.45;;;;;;;;;;4996678;28;20528;-83
2024/01/11 02:48:22;;;;;;;44.45;13.18;;;;;;;;;;4996789;28;20500;-83
2024/01/11 02:50:48;;;;;;;46.97;14.68;;;;;;;;;;4998353;28;20442;-83
2024/01/11 02:53:14;;;;;;;54.30;13.80;;;;;;;;;;4995557;28;20094;-82
2024/01/11 02:55:40;;;;;;;53.75;14.10;;;;;;;;;;4994007;28;20057;-83
2024/01/11 02:58:05;;;;;;;48.20;13.30;;;;;;;;;;4997007;28;20539;-83
2024/01/11 03:00:30;;;;;;;64.88;14.00;;;;;;;;;;4997646;28;20395;-82
2024/01/11 03:02:56;;;;;;;60.90;12.27;;;;;;;;;;4996832;28;20042;-82
2024/01/11 03:05:21;;;;;;;53.83;13.02;;;;;;;;;;4996574;28;20046;-82
2024/01/11 03:07:47;;;;;;;48.80;12.23;;;;;;;;;;4998921;28;20038;-82
2024/01/11 03:10:12;;;;;;;48.60;11.98;;;;;;;;;;4974313;28;20038;-82
2024/01/11 03:12:39;;;;;;;40.13;12.88;;;;;;;;;;4997679;28;20058;-83
2024/01/11 03:15:05;;;;;;;40.40;12.07;;;;;;;;;;4975031;28;20038;-82
2024/01/11 03:17:30;;;;;;;40.08;12.95;;;;;;;;;;4993839;28;20035;-82
2024/01/11 03:19:56;;;;;;;46.80;12.23;;;;;;;;;;4979884;28;20038;-82
2024/01/11 03:22:21;;;;;;;48.20;12.07;;;;;;;;;;4987225;28;20376;-83
2024/01/11 03:24:47;;;;;;;58.67;11.95;;;;;;;;;;4996351;28;20034;-83
2024/01/11 03:27:12;;;;;;;57.28;11.95;;;;;;;;;;4997703;28;20044;-83
2024/01/11 03:29:38;;;;;;;50.45;11.50;;;;;;;;;;4998813;28;20034;-82
2024/01/11 03:32:04;;;;;;;44.30;11.07;;;;;;;;;;4997612;28;20451;-82
2024/01/11 03:34:29;;;;;;;47.67;12.13;;;;;;;;;;4989200;28;20050;-83
2024/01/11 03:36:55;;;;;;;51.97;11.45;;;;;;;;;;4980762;28;20504;-83
2024/01/11 03:39:20;;;;;;;38.85;11.85;;;;;;;;;;4993914;28;20085;-83
2024/01/11 03:41:46;;;;;;;55.85;12.45;;;;;;;;;;4974636;28;20404;-83
2024/01/11 03:44:11;;;;;;;50.03;10.43;;;;;;;;;;4997083;28;20041;-83
2024/01/11 03:46:37;;;;;;;42.22;11.57;;;;;;;;;;4995289;28;20049;-83
2024/01/11 03:49:02;;;;;;;35.50;11.75;;;;;;;;;;4997486;28;20118;-83
2024/01/11 03:51:28;;;;;;;55.15;12.23;;;;;;;;;;4997094;28;20411;-83
2024/01/11 03:53:53;;;;;;;53.50;12.13;;;;;;;;;;4997959;28;20034;-83
2024/01/11 03:56:19;;;;;;;41.30;11.43;;;;;;;;;;4994694;28;20038;-82
2024/01/11 03:58:45;;;;;;;45.50;12.40;;;;;;;;;;4992953;28;21016;-83
2024/01/11 04:01:11;;;;;;;44.80;13.13;;;;;;;;;;4995393;28;20512;-83
2024/01/11 04:03:36;;;;;;;43.47;12.48;;;;;;;;;;4995106;28;20049;-83
2024/01/11 04:06:03;;;;;;;55.72;13.27;;;;;;;;;;4995144;28;20085;-82
2024/01/11 04:08:28;;;;;;;50.72;12.52;;;;;;;;;;4995327;28;20508;-82
2024/01/11 04:10:54;;;;;;;43.83;12.43;;;;;;;;;;4997341;28;20133;-83
2024/01/11 04:13:19;;;;;;;48.92;12.27;;;;;;;;;;4997112;28;20129;-82
2024/01/11 04:15:46;;;;;;;39.97;12.30;;;;;;;;;;4994909;28;20089;-82
2024/01/11 04:18:11;;;;;;;45.97;13.20;;;;;;;;;;4994633;28;20030;-82
2024/01/11 04:20:37;;;;;;;46.55;13.15;;;;;;;;;;4998139;28;20030;-83
2024/01/11 04:23:03;;;;;;;43.55;14.00;;;;;;;;;;4999898;28;20131;-82
2024/01/11 04:25:28;;;;;;;52.25;13.05;;;;;;;;;;4992858;28;20068;-83
2024/01/11 04:27:53;;;;;;;40.30;12.50;;;;;;;;;;4994344;28;20480;-82
2024/01/11 04:30:19;;;;;;;46.63;13.30;;;;;;;;;;4995226;28;20038;-83
2024/01/11 04:32:44;;;;;;;35.67;11.80;;;;;;;;;;4979711;28;20034;-82
2024/01/11 04:35:10;;;;;;;46.90;12.80;;;;;;;;;;4995669;28;20381;-82
2024/01/11 04:37:36;;;;;;;42.47;13.13;;;;;;;;;;4994427;28;20062;-82
2024/01/11 04:40:02;;;;;;;63.53;14.60;;;;;;;;;;4994428;28;20096;-82
2024/01/11 04:42:28;;;;;;;42.67;12.60;;;;;;;;;;4994251;28;20113;-82
2024/01/11 04:44:53;;;;;;;53.42;12.60;;;;;;;;;;4997556;28;20526;-82
2024/01/11 04:47:19;;;;;;;45.13;12.95;;;;;;;;;;4993292;28;20061;-82
2024/01/11 04:49:45;;;;;;;47.60;12.27;;;;;;;;;;4995101;28;20492;-82
2024/01/11 04:52:10;;;;;;;42.47;13.40;;;;;;;;;;4994181;28;20034;-82
2024/01/11 04:54:36;;;;;;;44.85;13.02;;;;;;;;;;4997633;28;20049;-82
2024/01/11 04:57:02;;;;;;;40.63;12.25;;;;;;;;;;4995831;28;20519;-82
2024/01/11 04:59:27;;;;;;;45.15;13.02;;;;;;;;;;4993747;28;20058;-82
2024/01/11 05:01:52;;;;;;;41.28;13.52;;;;;;;;;;4994913;28;20036;-82
2024/01/11 05:04:18;;;;;;;54.25;13.35;;;;;;;;;;4995396;28;20571;-82
2024/01/11 05:06:43;;;;;;;41.03;12.43;;;;;;;;;;4998412;28;20030;-82
2024/01/11 05:09:09;;;;;;;45.08;12.60;;;;;;;;;;4993759;28;20034;-82
2024/01/11 05:11:34;;;;;;;35.35;11.85;;;;;;;;;;4995295;28;20041;-82
2024/01/11 05:14:00;;;;;;;50.25;11.43;;;;;;;;;;4996847;28;20042;-82
2024/01/11 05:16:27;;;;;;;44.85;12.10;;;;;;;;;;4994023;28;20077;-82
2024/01/11 05:18:55;;;;;;;63.15;11.80;;;;;;;;;;4993186;28;20034;-82
2024/01/11 05:21:21;;;;;;;33.50;11.65;;;;;;;;;;4991681;28;20410;-82
2024/01/11 05:23:46;;;;;;;42.65;12.48;;;;;;;;;;4993856;28;20043;-82
2024/01/11 05:26:14;;;;;;;38.35;11.40;;;;;;;;;;4996096;28;20042;-82
2024/01/11 05:28:39;;;;;;;27.58;10.52;;;;;;;;;;4970503;28;20030;-83
2024/01/11 05:31:07;;;;;;;31.33;10.85;;;;;;;;;;4994826;28;20045;-83
2024/01/11 05:33:34;;;;;;;38.30;12.18;;;;;;;;;;4976174;28;20037;-83
2024/01/11 05:35:59;;;;;;;37.85;12.00;;;;;;;;;;4996688;28;20038;-82
2024/01/11 05:38:24;;;;;;;36.17;11.07;;;;;;;;;;4980152;28;20034;-83
2024/01/11 05:40:50;;;;;;;33.92;11.27;;;;;;;;;;4994039;28;20105;-83
2024/01/11 05:43:15;;;;;;;34.03;11.38;;;;;;;;;;4975539;28;20041;-83
2024/01/11 05:45:41;;;;;;;31.10;10.75;;;;;;;;;;4991085;28;20057;-82
2024/01/11 05:48:06;;;;;;;28.95;11.27;;;;;;;;;;4994944;28;20090;-83
2024/01/11 05:50:32;;;;;;;39.33;12.20;;;;;;;;;;4993510;28;20041;-82
2024/01/11 05:52:57;;;;;;;40.67;11.70;;;;;;;;;;4994350;28;20512;-82
2024/01/11 05:55:23;;;;;;;39.95;12.52;;;;;;;;;;4975675;28;20041;-82
2024/01/11 05:57:48;;;;;;;33.08;12.15;;;;;;;;;;4980988;28;20070;-83
2024/01/11 06:00:14;;;;;;;33.40;11.60;;;;;;;;;;4981374;28;20042;-82
2024/01/11 06:02:40;;;;;;;36.17;11.90;;;;;;;;;;4992943;28;20031;-83
2024/01/11 06:05:09;;;;;;;48.60;13.85;;;;;;;;;;4994897;28;20530;-83
2024/01/11 06:07:35;;;;;;;35.42;11.93;;;;;;;;;;4994027;28;20031;-83
2024/01/11 06:10:02;;;;;;;38.03;11.95;;;;;;;;;;4978918;28;20042;-82
2024/01/11 06:12:28;;;;;;;37.05;11.60;;;;;;;;;;4992673;28;20038;-82
2024/01/11 06:14:54;;;;;;;38.53;12.15;;;;;;;;;;4993502;28;20050;-83
2024/01/11 06:17:20;;;;;;;44.45;13.25;;;;;;;;;;4995196;28;20042;-84
2024/01/11 06:19:45;;;;;;;38.80;12.98;;;;;;;;;;4996102;28;20026;-83
2024/01/11 06:22:11;;;;;;;40.08;13.07;;;;;;;;;;4991301;28;20504;-83
2024/01/11 06:24:37;;;;;;;40.00;13.00;;;;;;;;;;4958661;28;20037;-82
2024/01/11 06:27:02;;;;;;;41.17;13.32;;;;;;;;;;4993250;28;20038;-83
2024/01/11 06:29:28;;;;;;;55.40;17.83;;;;;;;;;;4993358;28;20038;-83
2024/01/11 06:31:53;;;;;;;38.65;12.77;;;;;;;;;;4978708;28;20045;-82
2024/01/11 06:34:19;;;;;;;43.55;13.52;;;;;;;;;;4986792;28;20092;-82
2024/01/11 06:36:44;;;;;;;44.60;14.50;;;;;;;;;;4982213;28;20034;-83
2024/01/11 06:39:10;;;;;;;41.03;13.55;;;;;;;;;;5000230;28;20038;-83
2024/01/11 06:41:36;;;;;;;45.63;13.63;;;;;;;;;;4991208;28;20035;-82
2024/01/11 06:44:01;;;;;;;41.80;13.80;;;;;;;;;;4997430;28;20038;-83
2024/01/11 06:46:27;;;;;;;42.55;14.65;;;;;;;;;;4997712;28;20058;-81
2024/01/11 06:48:52;;;;;;;54.92;13.98;;;;;;;;;;4980897;28;20041;-83
2024/01/11 06:51:22;;;;;;;51.33;14.23;;;;;;;;;;4995982;28;20034;-82
2024/01/11 06:53:47;;;;;;;45.88;11.25;;;;;;;;;;4995200;28;20042;-81
2024/01/11 06:56:17;;;;;;;51.08;13.00;;;;;;;;;;4995815;28;20096;-82
2024/01/11 06:58:44;;;;;;;46.92;13.60;;;;;;;;;;4996424;28;20042;-82
2024/01/11 07:01:10;;;;;;;38.45;12.75;;;;;;;;;;4994367;28;20026;-82
2024/01/11 07:03:36;;;;;;;35.72;11.77;;;;;;;;;;4990095;28;20403;-82
2024/01/11 07:06:02;;;;;;;35.13;11.57;;;;;;;;;;4999489;28;20117;-81
2024/01/11 07:08:28;;;;;;;36.38;13.07;;;;;;;;;;4975987;28;20069;-82
2024/01/11 07:10:53;;;;;;;39.20;12.80;;;;;;;;;;5003670;28;20045;-82
2024/01/11 07:13:19;;;;;;;36.50;11.82;;;;;;;;;;5002113;28;20042;-82
2024/01/11 07:15:44;;;;;;;42.53;12.65;;;;;;;;;;4999699;28;20045;-83
2024/01/11 07:18:10;;;;;;;36.85;11.60;;;;;;;;;;4997563;28;20768;-83
2024/01/11 07:20:35;;;;;;;33.75;11.73;;;;;;;;;;5000328;28;20018;-83
2024/01/11 07:23:01;;;;;;;34.53;12.23;;;;;;;;;;4980903;28;20069;-82
2024/01/11 07:25:26;;;;;;;33.60;10.57;;;;;;;;;;4992078;28;20040;-84
2024/01/11 07:27:52;;;;;;;35.95;12.52;;;;;;;;;;4999302;28;20045;-84
2024/01/11 07:30:20;;;;;;;41.67;12.18;;;;;;;;;;4999327;28;20617;-85
2024/01/11 07:32:46;;;;;;;50.20;12.93;;;;;;;;;;4992590;28;20035;-85
2024/01/11 07:35:12;;;;;;;42.67;11.77;;;;;;;;;;4996252;28;20093;-85
2024/01/11 07:37:38;;;;;;;42.50;12.80;;;;;;;;;;4994677;28;20037;-83
2024/01/11 07:40:09;;;;;;;45.33;11.63;;;;;;;;;;4996879;28;20042;-85
2024/01/11 07:42:36;;;;;;;53.33;11.90;;;;;;;;;;4997478;28;20050;-84
2024/01/11 07:45:02;;;;;;;37.60;11.93;;;;;;;;;;4995469;28;20042;-84
2024/01/11 07:47:28;;;;;;;34.47;11.63;;;;;;;;;;4992740;28;20088;-83
2024/01/11 07:49:56;;;;;;;40.88;12.15;;;;;;;;;;4995970;28;20041;-84
2024/01/11 07:52:21;;;;;;;48.83;12.38;;;;;;;;;;4993946;28;20030;-86
2024/01/11 07:54:47;;;;;;;46.20;12.25;;;;;;;;;;4978541;28;20056;-83
2024/01/11 07:57:13;;;;;;;45.58;13.13;;;;;;;;;;4977824;28;20041;-83
2024/01/11 07:59:39;;;;;;;54.40;12.57;;;;;;;;;;4998625;28;20050;-83
2024/01/11 08:02:05;;;;;;;45.03;14.32;;;;;;;;;;4998644;28;20042;-83
2024/01/11 08:04:31;;;;;;;41.00;13.20;;;;;;;;;;4984405;28;20034;-83
2024/01/11 08:06:59;;;;;;;50.95;14.55;;;;;;;;;;4998977;28;20483;-85
2024/01/11 08:09:25;;;;;;;48.40;14.98;;;;;;;;;;4994765;28;20091;-83
2024/01/11 08:11:52;;;;;;;43.97;13.30;;;;;;;;;;4986190;28;20042;-83
2024/01/11 08:14:18;;;;;;;39.55;13.35;;;;;;;;;;4995106;28;20431;-83
2024/01/11 08:16:43;;;;;;;46.45;13.75;;;;;;;;;;4977535;28;20538;-83
2024/01/11 08:19:10;;;;;;;34.92;11.80;;;;;;;;;;4997393;28;20041;-83
2024/01/11 08:21:35;;;;;;;39.45;12.57;;;;;;;;;;4973666;28;20126;-83
2024/01/11 08:24:02;;;;;;;36.78;13.00;;;;;;;;;;5000740;28;20046;-83
2024/01/11 08:26:29;;;;;;;38.83;11.43;;;;;;;;;;4997082;28;20038;-82
2024/01/11 08:28:55;;;;;;;38.35;12.60;;;;;;;;;;4996765;28;20038;-82
2024/01/11 08:31:21;;;;;;;37.60;10.73;;;;;;;;;;4998531;28;20108;-83
2024/01/11 08:33:46;;;;;;;29.13;11.38;;;;;;;;;;5002760;28;20037;-82
2024/01/11 08:36:12;;;;;;;47.38;15.77;;;;;;;;;;4993834;28;20507;-82
2024/01/11 08:38:38;;;;;;;37.90;13.13;;;;;;;;;;5000018;28;20038;-82
2024/01/11 08:41:04;;;;;;;34.38;12.02;;;;;;;;;;5000417;28;20062;-82
2024/01/11 08:43:29;;;;;;;29.70;10.80;;;;;;;;;;4999165;28;20046;-86
2024/01/11 08:45:55;;;;;;;28.45;10.88;;;;;;;;;;4999467;28;20057;-84
2024/01/11 08:48:21;;;;;;;28.25;10.82;;;;;;;;;;4999493;28;20033;-83
2024/01/11 08:50:46;;;;;;;33.97;11.90;;;;;;;;;;4996250;28;20042;-83
2024/01/11 08:53:12;;;;;;;27.38;10.07;;;;;;;;;;4974693;28;20042;-82
2024/01/11 08:55:37;;;;;;;29.38;10.40;;;;;;;;;;4976640;28;20484;-81
2024/01/11 08:58:03;;;;;;;25.48;9.63;;;;;;;;;;4995292;28;20060;-82
2024/01/11 09:00:29;;;;;;;29.30;10.40;;;;;;;;;;4998257;28;20112;-82
2024/01/11 09:02:55;;;;;;;28.05;10.50;;;;;;;;;;4996803;28;20085;-82
2024/01/11 09:05:21;;;;;;;25.48;10.02;;;;;;;;;;4996141;28;20049;-81
2024/01/11 09:07:47;;;;;;;25.35;10.05;;;;;;;;;;4994548;28;20034;-82
2024/01/11 09:10:12;;;;;;;30.45;10.48;;;;;;;;;;4990788;28;20042;-82
2024/01/11 09:12:38;;;;;;;25.00;10.65;;;;;;;;;;4974995;28;20488;-82
2024/01/11 09:15:04;;;;;;;29.38;11.43;;;;;;;;;;4997504;28;20031;-82
2024/01/11 09:17:29;;;;;;;27.65;11.40;;;;;;;;;;4959277;28;20042;-81
2024/01/11 09:19:55;;;;;;;26.08;10.70;;;;;;;;;;4991341;28;20507;-82
2024/01/11 09:22:20;;;;;;;26.73;10.70;;;;;;;;;;4977028;28;20125;-83
2024/01/11 09:24:46;;;;;;;27.33;10.63;;;;;;;;;;4995641;28;20113;-83
2024/01/11 09:27:12;;;;;;;25.38;10.73;;;;;;;;;;4995117;28;20041;-82
2024/01/11 09:29:43;;;;;;;29.20;10.88;;;;;;;;;;4993219;28;20105;-81
2024/01/11 09:32:08;;;;;;;29.25;10.68;;;;;;;;;;4993629;28;20477;-84
2024/01/11 09:34:34;;;;;;;24.70;10.02;;;;;;;;;;4987974;28;20050;-82
2024/01/11 09:36:59;;;;;;;28.48;10.80;;;;;;;;;;4976162;28;20077;-82
2024/01/11 09:39:25;;;;;;;26.13;9.98;;;;;;;;;;4993143;28;20061;-81
2024/01/11 09:42:11;;;;;;;27.48;10.43;;;;;;;;;;4996425;28;20489;-82
2024/01/11 09:44:38;;;;;;;29.30;10.65;;;;;;;;;;4995632;28;20411;-82
2024/01/11 09:47:07;;;;;;;28.98;11.40;;;;;;;;;;4997550;28;20034;-82
2024/01/11 09:49:35;;;;;;;29.70;11.82;;;;;;;;;;4996041;28;20051;-82
2024/01/11 09:52:02;;;;;;;33.35;12.18;;;;;;;;;;4990343;28;20039;-82
2024/01/11 09:54:27;;;;;;;29.80;11.95;;;;;;;;;;4983358;28;20042;-81
2024/01/11 09:56:54;;;;;;;39.00;13.38;;;;;;;;;;4993375;28;20040;-84
2024/01/11 09:59:24;;;;;;;32.55;11.57;;;;;;;;;;4993454;28;20058;-82
2024/01/11 10:01:50;;;;;;;33.03;12.20;;;;;;;;;;4990866;28;20042;-83
2024/01/11 10:04:16;;;;;;;33.92;12.00;;;;;;;;;;4994755;28;20100;-82
2024/01/11 10:06:42;;;;;;;42.88;15.15;;;;;;;;;;4997178;28;20054;-83
2024/01/11 10:09:09;;;;;;;32.83;12.30;;;;;;;;;;4999316;28;20042;-81
2024/01/11 10:11:34;;;;;;;40.28;13.60;;;;;;;;;;4993835;28;20488;-82
2024/01/11 10:14:01;;;;;;;40.00;12.65;;;;;;;;;;4991075;28;20049;-82
2024/01/11 10:16:28;;;;;;;37.97;12.80;;;;;;;;;;4997691;28;20085;-81
2024/01/11 10:18:55;;;;;;;36.95;13.35;;;;;;;;;;4998797;28;20038;-82
2024/01/11 10:21:21;;;;;;;37.17;12.60;;;;;;;;;;4996812;28;20048;-83
2024/01/11 10:23:47;;;;;;;33.05;12.75;;;;;;;;;;4982248;28;20038;-82
2024/01/11 10:26:16;;;;;;;35.10;12.55;;;;;;;;;;4999751;28;20048;-83
2024/01/11 10:28:44;;;;;;;36.53;13.32;;;;;;;;;;5000929;28;20038;-82
2024/01/11 10:31:10;;;;;;;39.17;13.43;;;;;;;;;;4977551;28;20610;-82
2024/01/11 10:33:35;;;;;;;38.45;13.20;;;;;;;;;;4976539;28;20039;-82
2024/01/11 10:36:01;;;;;;;36.50;12.70;;;;;;;;;;4999352;28;20041;-83
2024/01/11 10:38:30;;;;;;;42.20;13.75;;;;;;;;;;4999818;28;20046;-82
2024/01/11 10:41:00;;;;;;;37.15;13.93;;;;;;;;;;4994789;28;20039;-82
2024/01/11 10:43:27;;;;;;;46.55;15.85;;;;;;;;;;4977753;28;20085;-82
2024/01/11 10:45:59;;;;;;;41.85;14.57;;;;;;;;;;4996544;28;20049;-82
2024/01/11 10:48:25;;;;;;;48.33;13.88;;;;;;;;;;4997583;28;20045;-82
2024/01/11 10:51:02;;;;;;;40.03;14.52;;;;;;;;;;4983127;28;20066;-81
2024/01/11 10:53:47;;;;;;;41.00;14.50;;;;;;;;;;4976598;28;20038;-82
2024/01/11 10:56:16;;;;;;;43.83;14.40;;;;;;;;;;5000558;28;20108;-83
2024/01/11 10:58:43;;;;;;;41.30;14.00;;;;;;;;;;4983168;28;20504;-83
2024/01/11 11:01:13;;;;;;;40.17;14.23;;;;;;;;;;4982147;28;20030;-83
2024/01/11 11:03:39;;;;;;;37.58;14.30;;;;;;;;;;4965549;28;20157;-82
2024/01/11 11:06:09;;;;;;;41.70;14.85;;;;;;;;;;5002258;28;20065;-83
2024/01/11 11:08:37;;;;;;;36.53;13.52;;;;;;;;;;5001297;28;20053;-83
2024/01/11 11:11:08;;;;;;;32.28;11.77;;;;;;;;;;5003213;28;20125;-83
2024/01/11 11:13:34;;;;;;;34.20;12.50;;;;;;;;;;4999851;28;20099;-83
2024/01/11 11:16:02;;;;;;;39.53;14.05;;;;;;;;;;4997690;28;20500;-81
2024/01/11 11:18:27;;;;;;;38.80;13.90;;;;;;;;;;4997943;28;20057;-82
2024/01/11 11:20:54;;;;;;;38.17;13.18;;;;;;;;;;4995321;28;20034;-81
2024/01/11 11:23:19;;;;;;;42.25;13.70;;;;;;;;;;4994708;28;20129;-81
2024/01/11 11:25:46;;;;;;;45.75;16.40;;;;;;;;;;4997272;28;20054;-81
2024/01/11 11:28:13;;;;;;;41.47;14.80;;;;;;;;;;4998802;28;20061;-81
2024/01/11 11:30:43;;;;;;;45.88;15.05;;;;;;;;;;4985827;28;20057;-82
2024/01/11 11:33:20;;;;;;;41.65;14.40;;;;;;;;;;5000540;28;20038;-82
2024/01/11 11:35:46;;;;;;;48.63;15.18;;;;;;;;;;4993459;28;20046;-81
2024/01/11 11:38:20;;;;;;;43.53;15.63;;;;;;;;;;5000959;28;20559;-80
2024/01/11 11:40:48;;;;;;;42.33;14.70;;;;;;;;;;4999977;28;20061;-81
2024/01/11 11:43:16;;;;;;;38.03;14.45;;;;;;;;;;4999779;28;20030;-82
2024/01/11 11:45:42;;;;;;;42.25;14.73;;;;;;;;;;4984645;28;20042;-81
2024/01/11 11:48:29;;;;;;;45.10;14.90;;;;;;;;;;5003407;28;20049;-82
2024/01/11 11:51:21;;;;;;;42.80;13.98;;;;;;;;;;4984895;28;20101;-82
2024/01/11 11:53:48;;;;;;;39.53;14.25;;;;;;;;;;4996005;28;20058;-81
2024/01/11 11:56:16;;;;;;;49.38;15.63;;;;;;;;;;4989212;28;20039;-81
2024/01/11 11:58:43;;;;;;;46.00;16.23;;;;;;;;;;4982454;28;20053;-82
2024/01/11 12:01:10;;;;;;;47.50;15.70;;;;;;;;;;5006445;28;20090;-81
2024/01/11 12:03:37;;;;;;;39.72;14.85;;;;;;;;;;5002851;28;20053;-80
2024/01/11 12:06:08;;;;;;;48.20;18.02;;;;;;;;;;5000167;28;20049;-81
2024/01/11 12:08:35;;;;;;;51.70;19.85;;;;;;;;;;4998733;28;20053;-80
2024/01/11 12:11:01;;;;;;;38.95;14.05;;;;;;;;;;5005482;28;20034;-80
2024/01/11 12:13:27;;;;;;;39.15;13.52;;;;;;;;;;5003928;28;20118;-80
2024/01/11 12:15:52;;;;;;;38.10;13.10;;;;;;;;;;5005523;28;20050;-81
2024/01/11 12:18:18;;;;;;;40.97;14.10;;;;;;;;;;4999586;28;20038;-81
2024/01/11 12:20:44;;;;;;;39.60;14.38;;;;;;;;;;5002209;28;20035;-81
2024/01/11 12:23:10;;;;;;;36.75;13.48;;;;;;;;;;5005102;28;20041;-81
2024/01/11 12:25:36;;;;;;;39.35;14.07;;;;;;;;;;4980565;28;20035;-80
2024/01/11 12:28:02;;;;;;;37.85;13.77;;;;;;;;;;5000662;28;20061;-80
2024/01/11 12:30:29;;;;;;;37.30;12.73;;;;;;;;;;5001007;28;20046;-80
2024/01/11 12:32:56;;;;;;;38.50;13.75;;;;;;;;;;4989836;28;20034;-81
2024/01/11 12:35:22;;;;;;;43.38;13.30;;;;;;;;;;5003372;28;20030;-81
2024/01/11 12:37:54;;;;;;;38.45;13.52;;;;;;;;;;4996632;28;20030;-81
2024/01/11 12:40:20;;;;;;;37.95;13.35;;;;;;;;;;4983522;28;20040;-80
2024/01/11 12:42:49;;;;;;;50.90;21.00;;;;;;;;;;5001093;28;20042;-81
2024/01/11 12:45:17;;;;;;;37.83;13.48;;;;;;;;;;4984862;28;20415;-82
2024/01/11 12:47:44;;;;;;;41.88;15.68;;;;;;;;;;4996729;28;20484;-82
2024/01/11 12:50:12;;;;;;;45.60;15.25;;;;;;;;;;5000378;28;20034;-82
2024/01/11 12:52:38;;;;;;;40.40;14.07;;;;;;;;;;5000765;28;20037;-82
2024/01/11 12:55:04;;;;;;;46.33;14.73;;;;;;;;;;5000397;28;20061;-81
2024/01/11 12:57:30;;;;;;;37.08;13.50;;;;;;;;;;5001812;28;20050;-81
2024/01/11 13:00:10;;;;;;;42.88;15.07;;;;;;;;;;5002517;28;20072;-82
2024/01/11 13:02:36;;;;;;;42.40;15.02;;;;;;;;;;5004630;28;20110;-82
2024/01/11 13:05:02;;;;;;;43.90;14.75;;;;;;;;;;4987656;28;20023;-83
2024/01/11 13:07:28;;;;;;;40.67;14.45;;;;;;;;;;5003896;28;20050;-82
2024/01/11 13:09:53;;;;;;;39.45;13.95;;;;;;;;;;5005690;28;20154;-83
2024/01/11 13:12:20;;;;;;;35.05;12.98;;;;;;;;;;5004745;28;20070;-83
2024/01/11 13:14:47;;;;;;;38.45;13.38;;;;;;;;;;5005479;28;20017;-84
2024/01/11 13:17:13;;;;;;;39.85;13.48;;;;;;;;;;5005162;28;20085;-83
2024/01/11 13:19:39;;;;;;;36.65;13.70;;;;;;;;;;5003596;28;20062;-82
2024/01/11 13:22:04;;;;;;;35.67;13.10;;;;;;;;;;5003477;28;20030;-82
2024/01/11 13:24:30;;;;;;;33.28;13.15;;;;;;;;;;5004249;28;20069;-83
2024/01/11 13:26:56;;;;;;;35.00;12.60;;;;;;;;;;5003122;28;20050;-82
2024/01/11 13:29:21;;;;;;;38.38;13.10;;;;;;;;;;5001412;28;20038;-82
2024/01/11 13:31:47;;;;;;;38.17;13.30;;;;;;;;;;5002300;28;20089;-81
2024/01/11 13:34:12;;;;;;;33.38;12.75;;;;;;;;;;5006363;28;20042;-83
2024/01/11 13:36:38;;;;;;;31.65;12.60;;;;;;;;;;5004077;28;20033;-82
2024/01/11 13:39:03;;;;;;;33.92;13.07;;;;;;;;;;4986921;28;20038;-83
2024/01/11 13:41:29;;;;;;;36.85;12.52;;;;;;;;;;5001495;28;20026;-83
2024/01/11 13:43:54;;;;;;;33.70;12.82;;;;;;;;;;5008837;28;20037;-82
2024/01/11 13:46:20;;;;;;;35.38;13.07;;;;;;;;;;5008352;28;20038;-83
2024/01/11 13:48:47;;;;;;;33.85;12.80;;;;;;;;;;5001796;28;20082;-83
2024/01/11 13:51:15;;;;;;;29.17;12.45;;;;;;;;;;4978783;28;20110;-83
2024/01/11 13:53:41;;;;;;;32.75;12.95;;;;;;;;;;5004443;28;20026;-83
2024/01/11 13:56:06;;;;;;;32.28;10.40;;;;;;;;;;5004876;28;20492;-82
2024/01/11 13:58:32;;;;;;;36.88;13.48;;;;;;;;;;4985709;28;20155;-82
2024/01/11 14:00:57;;;;;;;41.28;16.15;;;;;;;;;;5008582;28;20038;-82
2024/01/11 14:03:23;;;;;;;33.20;12.93;;;;;;;;;;5007089;28;20058;-82
2024/01/11 14:05:49;;;;;;;38.28;14.77;;;;;;;;;;5002842;28;20042;-82
2024/01/11 14:08:14;;;;;;;40.80;16.58;;;;;;;;;;5003756;28;20031;-81
2024/01/11 14:10:40;;;;;;;50.30;18.77;;;;;;;;;;5001256;28;20042;-81